Time;durP1;ratioP1;P1;durP2;ratioP2;P2;SDS_P1;SDS_P2;PMS_P1;PMS_P2;Temp;Humidity;BMP_temperature;BMP_pressure;BME280_temperature;BME280_humidity;BME280_pressure;Samples;Min_cycle;Max_cycle;Signal;HPM_P1;HPM_P2
2023/08/18 00:01:22;;;;;;;2.35;1.20;;;23.90;88.30;;;;;;5063418;28;20045;-70
2023/08/18 00:03:48;;;;;;;2.80;1.48;;;23.90;90.60;;;;;;5031611;28;20095;-67
2023/08/18 00:06:14;;;;;;;3.28;1.35;;;23.90;88.30;;;;;;5060434;28;20342;-66
2023/08/18 00:08:39;;;;;;;2.50;1.20;;;23.70;88.30;;;;;;5073184;28;20374;-70
2023/08/18 00:11:05;;;;;;;2.38;1.05;;;23.80;88.30;;;;;;5073034;28;20037;-68
2023/08/18 00:13:31;;;;;;;2.78;1.30;;;23.60;88.30;;;;;;5073173;28;20079;-74
2023/08/18 00:15:57;;;;;;;2.83;1.10;;;23.80;88.30;;;;;;5066748;28;20060;-64
2023/08/18 00:18:22;;;;;;;2.80;1.40;;;23.50;88.20;;;;;;5046593;28;20479;-72
2023/08/18 00:20:49;;;;;;;2.45;1.33;;;23.70;88.30;;;;;;5032822;28;20064;-71
2023/08/18 00:23:15;;;;;;;2.75;1.30;;;23.80;88.30;;;;;;5032819;28;20424;-64
2023/08/18 00:25:41;;;;;;;3.05;1.30;;;23.80;88.40;;;;;;5041835;28;20052;-69
2023/08/18 00:28:07;;;;;;;2.60;1.20;;;23.80;88.50;;;;;;5046652;28;22666;-68
2023/08/18 00:30:32;;;;;;;2.88;1.70;;;23.70;88.30;;;;;;5042525;28;20044;-69
2023/08/18 00:32:58;;;;;;;3.78;1.30;;;23.80;88.50;;;;;;5064548;28;20047;-71
2023/08/18 00:35:24;;;;;;;3.67;1.40;;;23.60;88.30;;;;;;5057995;28;20471;-68
2023/08/18 00:37:49;;;;;;;2.88;1.45;;;23.80;90.70;;;;;;5032968;28;20043;-71
2023/08/18 00:40:16;;;;;;;4.07;1.50;;;23.70;90.70;;;;;;5032578;28;20085;-65
2023/08/18 00:42:42;;;;;;;2.63;1.45;;;23.90;88.50;;;;;;5064241;28;20118;-66
2023/08/18 00:45:08;;;;;;;2.35;1.25;;;23.70;90.80;;;;;;5071009;28;20037;-64
2023/08/18 00:47:34;;;;;;;3.10;1.60;;;23.70;88.10;;;;;;5072857;28;20395;-66
2023/08/18 00:50:00;;;;;;;3.10;1.40;;;24.00;88.60;;;;;;5038358;28;20102;-68
2023/08/18 00:52:25;;;;;;;2.47;1.38;;;23.60;90.80;;;;;;5015631;28;20052;-66
2023/08/18 00:54:51;;;;;;;2.75;1.20;;;23.60;88.50;;;;;;5052190;28;20088;-66
2023/08/18 00:57:17;;;;;;;2.20;1.48;;;23.80;88.60;;;;;;5034701;28;20321;-68
2023/08/18 00:59:43;;;;;;;3.20;1.40;;;23.80;88.70;;;;;;5055329;28;20052;-69
2023/08/18 01:02:09;;;;;;;1.50;1.05;;;23.50;88.40;;;;;;5033774;28;20032;-73
2023/08/18 01:04:35;;;;;;;2.75;1.50;;;23.70;88.50;;;;;;5033910;28;20494;-67
2023/08/18 01:07:00;;;;;;;3.08;1.50;;;23.60;88.60;;;;;;5052572;28;20037;-66
2023/08/18 01:09:27;;;;;;;2.13;1.13;;;23.70;88.60;;;;;;5037897;28;20040;-72
2023/08/18 01:12:35;;;;;;;3.63;1.63;;;23.80;88.90;;;;;;5051304;28;20498;-67
2023/08/18 01:15:12;;;;;;;3.03;1.52;;;23.60;87.40;;;;;;4952141;28;20129;-70
2023/08/18 01:17:50;;;;;;;2.80;1.30;;;23.70;87.30;;;;;;4967493;28;20055;-62
2023/08/18 01:20:16;;;;;;;2.88;1.30;;;23.50;87.30;;;;;;4970481;28;20055;-69
2023/08/18 01:22:43;;;;;;;2.28;1.40;;;23.70;88.80;;;;;;4987881;28;20088;-70
2023/08/18 01:25:09;;;;;;;4.28;1.55;;;23.50;88.70;;;;;;4954024;28;20113;-66
2023/08/18 01:27:34;;;;;;;2.67;1.30;;;23.60;88.70;;;;;;4970690;28;20043;-74
2023/08/18 01:30:00;;;;;;;2.55;1.23;;;24.00;88.90;;;;;;4969573;28;20108;-66
2023/08/18 01:32:29;;;;;;;2.80;1.27;;;23.80;88.70;;;;;;4966512;28;20043;-64
2023/08/18 01:34:54;;;;;;;3.08;1.52;;;23.70;90.90;;;;;;4966610;28;20074;-68
2023/08/18 01:37:20;;;;;;;3.13;1.60;;;23.60;88.60;;;;;;4987287;28;20050;-65
2023/08/18 01:39:46;;;;;;;3.38;1.70;;;23.80;89.00;;;;;;4986999;28;20039;-66
2023/08/18 01:42:13;;;;;;;3.85;1.67;;;23.60;90.60;;;;;;4983842;28;20062;-67
2023/08/18 01:44:38;;;;;;;2.75;1.60;;;23.80;89.00;;;;;;4987656;28;20078;-65
2023/08/18 01:47:04;;;;;;;3.47;1.50;;;23.70;88.70;;;;;;4990344;28;20050;-67
2023/08/18 01:49:30;;;;;;;3.55;1.60;;;23.80;88.70;;;;;;5026744;28;20087;-66
2023/08/18 01:51:56;;;;;;;2.63;1.40;;;23.40;88.60;;;;;;5032621;28;20041;-65
2023/08/18 01:54:21;;;;;;;3.35;1.52;;;23.50;88.60;;;;;;5032951;28;20064;-65
2023/08/18 01:56:47;;;;;;;3.20;1.50;;;23.70;90.70;;;;;;5032224;28;20076;-67
2023/08/18 01:59:14;;;;;;;3.42;1.50;;;23.70;90.80;;;;;;5032629;28;20030;-71
2023/08/18 02:01:39;;;;;;;4.38;1.60;;;23.70;91.00;;;;;;5034657;28;20384;-68
2023/08/18 02:04:05;;;;;;;3.08;1.60;;;23.70;88.90;;;;;;5031027;28;20072;-70
2023/08/18 02:06:31;;;;;;;3.13;1.50;;;23.60;88.80;;;;;;5032658;28;20076;-65
2023/08/18 02:08:57;;;;;;;2.95;1.40;;;23.80;88.90;;;;;;5035588;28;20045;-68
2023/08/18 02:11:23;;;;;;;3.17;1.60;;;23.70;88.60;;;;;;5045742;28;20045;-67
2023/08/18 02:13:49;;;;;;;5.32;1.70;;;23.50;90.70;;;;;;5042945;28;20045;-66
2023/08/18 02:16:14;;;;;;;3.55;1.63;;;23.60;88.70;;;;;;5047771;28;20118;-64
2023/08/18 02:18:40;;;;;;;3.65;1.77;;;23.70;88.90;;;;;;5032438;28;20494;-65
2023/08/18 02:21:06;;;;;;;3.17;1.70;;;23.80;88.90;;;;;;5049421;28;20132;-64
2023/08/18 02:23:32;;;;;;;2.95;1.60;;;23.30;88.40;;;;;;5048856;28;20057;-69
2023/08/18 02:26:01;;;;;;;4.82;1.80;;;23.70;88.80;;;;;;5055042;28;20049;-67
2023/08/18 02:28:27;;;;;;;3.08;1.40;;;23.70;89.20;;;;;;5039137;28;20065;-71
2023/08/18 02:31:06;;;;;;;3.92;1.60;;;23.60;88.90;;;;;;5083558;28;20044;-64
2023/08/18 02:33:33;;;;;;;3.25;1.40;;;23.60;89.50;;;;;;5074066;28;20049;-69
2023/08/18 02:35:59;;;;;;;3.22;1.52;;;23.70;89.10;;;;;;5043228;28;20048;-69
2023/08/18 02:38:26;;;;;;;4.05;1.70;;;23.90;89.00;;;;;;5052970;28;20487;-66
2023/08/18 02:40:52;;;;;;;3.50;1.58;;;23.60;89.10;;;;;;5034176;28;20559;-68
2023/08/18 02:43:18;;;;;;;3.00;1.52;;;23.60;89.00;;;;;;5037077;28;20095;-65
2023/08/18 02:45:44;;;;;;;3.60;1.60;;;23.60;89.10;;;;;;5036789;28;20041;-64
2023/08/18 02:48:11;;;;;;;3.00;1.50;;;23.50;88.90;;;;;;5051480;28;20056;-67
2023/08/18 02:50:40;;;;;;;3.45;1.70;;;23.90;89.20;;;;;;5055732;28;20405;-64
2023/08/18 02:53:07;;;;;;;3.67;1.58;;;23.70;87.70;;;;;;5049320;28;20052;-66
2023/08/18 02:55:34;;;;;;;2.40;1.42;;;23.50;89.00;;;;;;5054506;28;20041;-64
2023/08/18 02:58:03;;;;;;;3.08;1.23;;;23.80;89.30;;;;;;5054268;28;20402;-66
2023/08/18 03:00:29;;;;;;;3.88;1.60;;;23.70;87.90;;;;;;5057275;28;20049;-66
2023/08/18 03:02:55;;;;;;;4.10;1.67;;;23.50;90.90;;;;;;5051645;28;20037;-61
2023/08/18 03:05:21;;;;;;;3.33;1.65;;;23.70;89.20;;;;;;5055394;28;20383;-64
2023/08/18 03:07:46;;;;;;;4.43;1.70;;;23.60;91.20;;;;;;5069632;28;20052;-66
2023/08/18 03:10:12;;;;;;;3.28;1.58;;;23.70;89.30;;;;;;5034203;28;20041;-65
2023/08/18 03:12:38;;;;;;;3.15;1.70;;;23.60;89.10;;;;;;5037661;28;20067;-62
2023/08/18 03:15:05;;;;;;;5.00;1.65;;;23.80;89.30;;;;;;5052466;28;20399;-63
2023/08/18 03:17:31;;;;;;;3.78;1.77;;;23.70;89.00;;;;;;5054369;28;20060;-65
2023/08/18 03:19:56;;;;;;;2.97;1.70;;;23.50;91.10;;;;;;5053992;28;20045;-68
2023/08/18 03:22:22;;;;;;;4.47;1.67;;;23.60;89.30;;;;;;5052899;28;20053;-66
2023/08/18 03:24:48;;;;;;;4.35;1.73;;;23.80;89.40;;;;;;5043918;28;20045;-64
2023/08/18 03:27:13;;;;;;;4.32;1.88;;;23.60;89.40;;;;;;5047806;28;20136;-63
2023/08/18 03:29:39;;;;;;;3.35;1.88;;;23.50;91.20;;;;;;5042728;28;20081;-68
2023/08/18 03:32:05;;;;;;;4.15;1.70;;;23.40;89.30;;;;;;5034766;28;20048;-62
2023/08/18 03:34:31;;;;;;;3.22;1.70;;;23.70;89.50;;;;;;5051413;28;20072;-63
2023/08/18 03:36:57;;;;;;;3.38;1.67;;;23.50;89.40;;;;;;5049613;28;20124;-68
2023/08/18 03:39:23;;;;;;;4.53;1.80;;;23.50;89.40;;;;;;5034068;28;20153;-70
2023/08/18 03:41:48;;;;;;;3.20;1.55;;;23.50;89.40;;;;;;5034284;28;20045;-73
2023/08/18 03:44:14;;;;;;;3.03;1.60;;;23.60;91.00;;;;;;5046988;28;20045;-69
2023/08/18 03:46:40;;;;;;;3.70;1.75;;;23.60;89.40;;;;;;5053776;28;20041;-67
2023/08/18 03:49:06;;;;;;;4.85;2.05;;;23.60;89.50;;;;;;5052541;28;20098;-66
2023/08/18 03:51:34;;;;;;;3.33;1.65;;;23.60;89.50;;;;;;5053826;28;20045;-70
2023/08/18 03:54:00;;;;;;;3.78;1.70;;;23.70;89.80;;;;;;5050695;28;20556;-69
2023/08/18 03:56:26;;;;;;;4.35;1.80;;;23.40;89.50;;;;;;5047538;28;20049;-68
2023/08/18 03:58:52;;;;;;;3.72;1.67;;;23.50;91.20;;;;;;5036979;28;20041;-72
2023/08/18 04:01:18;;;;;;;2.72;1.55;;;23.50;89.70;;;;;;5033852;28;20385;-71
2023/08/18 04:03:44;;;;;;;3.42;1.63;;;23.50;91.20;;;;;;5044354;28;20052;-72
2023/08/18 04:06:12;;;;;;;4.75;1.50;;;25.00;90.20;;;;;;5034622;28;20049;-67
2023/08/18 04:08:44;;;;;;;3.67;1.70;;;23.50;91.20;;;;;;5052126;28;20441;-68
2023/08/18 04:11:10;;;;;;;3.87;1.60;;;23.50;91.10;;;;;;5053032;28;20052;-70
2023/08/18 04:13:36;;;;;;;3.08;1.70;;;23.80;91.40;;;;;;5050781;28;20083;-63
2023/08/18 04:16:02;;;;;;;4.07;1.77;;;23.50;89.80;;;;;;5050320;28;20044;-67
2023/08/18 04:18:29;;;;;;;3.25;1.40;;;23.60;89.80;;;;;;5053376;28;20044;-71
2023/08/18 04:20:55;;;;;;;3.25;1.50;;;23.60;91.50;;;;;;5041238;28;20130;-65
2023/08/18 04:23:21;;;;;;;4.15;1.67;;;23.60;89.80;;;;;;5059415;28;20087;-71
2023/08/18 04:25:47;;;;;;;3.85;1.65;;;23.60;89.90;;;;;;5072903;28;20474;-69
2023/08/18 04:28:12;;;;;;;3.15;1.55;;;23.40;89.80;;;;;;5073233;28;20064;-67
2023/08/18 04:30:38;;;;;;;3.30;1.60;;;23.50;89.90;;;;;;5078179;28;20049;-65
2023/08/18 04:33:04;;;;;;;4.22;1.88;;;23.60;89.90;;;;;;5046299;28;20049;-66
2023/08/18 04:35:30;;;;;;;4.50;1.73;;;23.50;91.40;;;;;;5059911;28;20040;-68
2023/08/18 04:37:55;;;;;;;2.75;1.50;;;23.60;90.00;;;;;;5054852;28;20058;-69
2023/08/18 04:40:23;;;;;;;3.20;1.60;;;23.50;89.90;;;;;;5064551;28;20087;-70
2023/08/18 04:42:49;;;;;;;3.53;1.88;;;23.60;90.00;;;;;;5051521;28;20107;-68
2023/08/18 04:45:15;;;;;;;3.80;1.52;;;23.80;90.00;;;;;;5072867;28;20072;-69
2023/08/18 04:47:40;;;;;;;4.43;1.70;;;23.60;89.90;;;;;;5072671;28;20583;-71
2023/08/18 04:50:07;;;;;;;2.80;1.40;;;23.80;90.00;;;;;;5064796;28;20502;-70
2023/08/18 04:52:32;;;;;;;3.33;1.50;;;23.60;89.70;;;;;;5051510;28;20049;-73
2023/08/18 04:54:58;;;;;;;5.15;1.58;;;23.40;90.00;;;;;;5035205;28;20049;-69
2023/08/18 04:57:24;;;;;;;2.65;1.50;;;23.60;90.00;;;;;;5051534;28;20386;-65
2023/08/18 04:59:49;;;;;;;3.13;1.48;;;23.50;90.00;;;;;;5052092;28;20479;-71
2023/08/18 05:02:15;;;;;;;2.03;1.25;;;23.60;90.00;;;;;;5028944;28;20056;-68
2023/08/18 05:04:41;;;;;;;3.75;1.85;;;23.60;90.00;;;;;;5063647;28;20131;-69
2023/08/18 05:07:07;;;;;;;3.08;1.75;;;23.40;90.00;;;;;;5061690;28;20084;-64
2023/08/18 05:09:34;;;;;;;2.78;1.45;;;23.70;90.00;;;;;;5032095;28;20056;-71
2023/08/18 05:12:00;;;;;;;3.47;1.52;;;23.60;90.10;;;;;;5031944;28;20140;-71
2023/08/18 05:14:25;;;;;;;2.65;1.48;;;23.70;90.00;;;;;;5050586;28;20111;-65
2023/08/18 05:16:51;;;;;;;4.03;1.67;;;23.60;89.90;;;;;;5033044;28;20041;-70
2023/08/18 05:19:17;;;;;;;2.72;1.40;;;23.70;90.00;;;;;;5031117;28;20059;-64
2023/08/18 05:21:43;;;;;;;3.42;1.50;;;23.60;90.00;;;;;;5047986;28;20415;-64
2023/08/18 05:24:08;;;;;;;4.18;1.50;;;23.50;89.90;;;;;;5026983;28;20053;-68
2023/08/18 05:26:34;;;;;;;3.13;1.63;;;23.50;90.00;;;;;;5043190;28;20049;-64
2023/08/18 05:29:00;;;;;;;4.03;1.77;;;23.60;90.00;;;;;;5033383;28;20104;-66
2023/08/18 05:31:26;;;;;;;4.05;1.77;;;23.80;90.10;;;;;;5051955;28;20041;-66
2023/08/18 05:33:51;;;;;;;2.70;1.52;;;23.50;91.30;;;;;;5050537;28;20116;-67
2023/08/18 05:36:20;;;;;;;3.50;1.70;;;23.70;91.50;;;;;;5052242;28;20037;-64
2023/08/18 05:38:47;;;;;;;4.70;1.63;;;23.60;89.10;;;;;;5051130;28;20075;-70
2023/08/18 05:41:13;;;;;;;3.22;1.63;;;23.70;91.50;;;;;;5046357;28;20514;-65
2023/08/18 05:43:42;;;;;;;4.55;1.60;;;23.60;89.90;;;;;;5051184;28;20567;-65
2023/08/18 05:46:08;;;;;;;3.90;1.70;;;23.50;91.50;;;;;;5046963;28;20083;-67
2023/08/18 05:48:34;;;;;;;3.60;1.70;;;23.60;90.00;;;;;;5084694;28;20450;-64
2023/08/18 05:51:00;;;;;;;4.05;1.80;;;23.60;90.00;;;;;;5072070;28;20090;-70
2023/08/18 05:53:26;;;;;;;3.90;1.75;;;23.60;90.00;;;;;;5054975;28;20084;-64
2023/08/18 05:55:52;;;;;;;4.60;1.83;;;23.70;90.00;;;;;;5051625;28;20084;-65
2023/08/18 05:58:18;;;;;;;4.30;1.80;;;23.80;90.10;;;;;;5039664;28;20041;-66
2023/08/18 06:00:44;;;;;;;3.45;1.52;;;23.60;90.10;;;;;;5055751;28;20060;-65
2023/08/18 06:03:10;;;;;;;3.75;1.90;;;23.60;90.00;;;;;;5037253;28;20036;-65
2023/08/18 06:05:36;;;;;;;3.97;2.00;;;23.60;90.00;;;;;;5052789;28;20128;-65
2023/08/18 06:08:01;;;;;;;4.70;2.00;;;23.70;90.00;;;;;;5067043;28;20045;-65
2023/08/18 06:10:27;;;;;;;3.72;1.80;;;23.80;90.10;;;;;;5075629;28;20056;-68
2023/08/18 06:12:53;;;;;;;2.13;1.42;;;23.90;90.00;;;;;;5066219;28;20047;-65
2023/08/18 06:15:20;;;;;;;5.03;2.25;;;23.60;89.90;;;;;;5048875;28;20048;-68
2023/08/18 06:17:46;;;;;;;4.70;1.75;;;23.70;90.10;;;;;;5052000;28;20389;-67
2023/08/18 06:20:12;;;;;;;8.18;2.10;;;23.70;90.10;;;;;;5055584;28;20131;-67
2023/08/18 06:22:37;;;;;;;7.18;2.20;;;23.60;90.00;;;;;;5043956;28;20064;-67
2023/08/18 06:25:07;;;;;;;4.82;1.98;;;23.60;91.20;;;;;;5055715;28;20052;-66
2023/08/18 06:27:33;;;;;;;4.55;1.83;;;23.50;91.40;;;;;;5051940;28;20458;-66
2023/08/18 06:29:58;;;;;;;4.13;2.10;;;23.60;91.30;;;;;;5035357;28;20105;-66
2023/08/18 06:32:24;;;;;;;6.65;2.53;;;23.50;90.00;;;;;;5040369;28;20490;-69
2023/08/18 06:34:51;;;;;;;4.35;2.42;;;23.80;90.00;;;;;;5056110;28;20037;-67
2023/08/18 06:37:17;;;;;;;5.50;2.28;;;23.80;90.10;;;;;;5054131;28;20038;-74
2023/08/18 06:39:43;;;;;;;3.75;2.17;;;23.70;90.10;;;;;;5050337;28;20037;-63
2023/08/18 06:42:09;;;;;;;4.90;2.50;;;23.50;89.80;;;;;;5054256;28;20099;-62
2023/08/18 06:44:35;;;;;;;5.75;2.80;;;23.90;89.90;;;;;;5038341;28;20414;-69
2023/08/18 06:47:01;;;;;;;5.15;2.83;;;23.40;91.50;;;;;;5053825;28;20057;-72
2023/08/18 06:49:27;;;;;;;5.20;2.35;;;23.50;89.90;;;;;;5059119;28;20047;-67
2023/08/18 06:51:53;;;;;;;5.13;2.58;;;23.70;90.00;;;;;;5065898;28;20069;-66
2023/08/18 06:54:18;;;;;;;6.43;2.72;;;23.70;90.10;;;;;;5067904;28;20036;-68
2023/08/18 06:56:44;;;;;;;5.75;2.90;;;23.50;91.20;;;;;;5088920;28;20059;-65
2023/08/18 06:59:12;;;;;;;4.60;2.40;;;23.60;91.30;;;;;;5074615;28;20041;-62
2023/08/18 07:01:38;;;;;;;7.38;2.83;;;23.60;90.10;;;;;;5070528;28;20075;-65
2023/08/18 07:04:04;;;;;;;6.50;2.67;;;23.80;91.50;;;;;;5050143;28;20041;-65
2023/08/18 07:06:31;;;;;;;8.73;3.25;;;23.80;91.30;;;;;;5035240;28;20183;-66
2023/08/18 07:08:57;;;;;;;8.00;3.25;;;23.60;90.10;;;;;;5034483;28;20057;-68
2023/08/18 07:11:23;;;;;;;6.50;2.60;;;23.70;90.30;;;;;;5044729;28;20045;-66
2023/08/18 07:13:48;;;;;;;5.65;2.60;;;23.60;89.90;;;;;;5049372;28;20051;-64
2023/08/18 07:16:14;;;;;;;5.38;2.65;;;23.80;90.00;;;;;;5074610;28;20068;-66
2023/08/18 07:18:40;;;;;;;4.90;2.55;;;23.70;90.00;;;;;;5064275;28;20441;-74
2023/08/18 07:21:06;;;;;;;11.75;3.53;;;23.70;90.00;;;;;;5054133;28;20535;-66
2023/08/18 07:23:32;;;;;;;6.18;2.75;;;;;;;;;;5045193;28;20492;-67
2023/08/18 07:25:58;;;;;;;6.55;2.95;;;23.70;89.00;;;;;;5024005;28;20041;-70
2023/08/18 07:28:24;;;;;;;6.80;2.28;;;23.70;90.10;;;;;;5040855;28;20595;-68
2023/08/18 07:30:50;;;;;;;6.40;2.88;;;23.80;90.00;;;;;;5036025;28;20164;-73
2023/08/18 07:33:16;;;;;;;8.18;2.80;;;23.70;91.20;;;;;;5041240;28;20070;-69
2023/08/18 07:35:42;;;;;;;5.95;2.78;;;23.80;90.00;;;;;;5028770;28;20052;-64
2023/08/18 07:38:07;;;;;;;9.52;2.90;;;23.80;91.50;;;;;;5030876;28;20084;-73
2023/08/18 07:40:33;;;;;;;5.03;2.40;;;23.50;89.80;;;;;;5039889;28;20050;-71
2023/08/18 07:42:59;;;;;;;7.50;2.78;;;23.70;89.90;;;;;;5031786;28;20048;-68
2023/08/18 07:45:26;;;;;;;7.50;2.80;;;23.60;89.80;;;;;;4998407;28;20415;-69
2023/08/18 07:47:53;;;;;;;7.55;2.80;;;23.80;90.10;;;;;;5013986;28;20384;-69
2023/08/18 07:50:19;;;;;;;7.20;2.97;;;23.90;91.50;;;;;;5005172;28;20384;-74
2023/08/18 07:52:44;;;;;;;7.18;2.80;;;23.80;90.00;;;;;;5035406;28;20063;-69
2023/08/18 07:55:10;;;;;;;7.70;2.80;;;23.70;90.10;;;;;;5035697;28;20045;-66
2023/08/18 07:57:37;;;;;;;5.20;2.90;;;23.30;90.00;;;;;;5013458;28;20041;-70
2023/08/18 08:00:08;;;;;;;6.53;3.17;;;23.80;90.20;;;;;;4984441;28;20049;-73
2023/08/18 08:02:35;;;;;;;6.03;3.22;;;23.90;90.00;;;;;;5033295;28;20398;-74
2023/08/18 08:05:05;;;;;;;6.25;2.80;;;23.60;90.10;;;;;;5018399;28;20052;-70
2023/08/18 08:07:33;;;;;;;6.05;2.90;;;23.60;90.20;;;;;;5019054;28;20053;-64
2023/08/18 08:10:03;;;;;;;5.50;3.03;;;23.70;91.50;;;;;;5024223;28;20099;-72
2023/08/18 08:12:31;;;;;;;6.43;3.20;;;23.70;91.60;;;;;;5027142;28;20079;-63
2023/08/18 08:14:58;;;;;;;6.53;3.10;;;23.60;90.20;;;;;;5035732;28;20074;-67
2023/08/18 08:17:24;;;;;;;4.82;2.75;;;23.50;91.50;;;;;;5035591;28;20053;-68
2023/08/18 08:19:50;;;;;;;6.78;3.13;;;23.80;90.20;;;;;;5032468;28;20390;-68
2023/08/18 08:22:16;;;;;;;6.32;2.80;;;23.50;90.20;;;;;;5039965;28;20048;-70
2023/08/18 08:24:42;;;;;;;10.90;3.60;;;23.80;90.20;;;;;;5052237;28;20186;-77
2023/08/18 08:27:08;;;;;;;7.18;3.20;;;23.80;90.20;;;;;;5038468;28;20086;-67
2023/08/18 08:29:34;;;;;;;6.22;2.80;;;23.90;91.50;;;;;;5039290;28;20076;-69
2023/08/18 08:32:00;;;;;;;8.80;3.05;;;23.90;90.10;;;;;;5042940;28;20148;-68
2023/08/18 08:34:26;;;;;;;3.97;2.53;;;23.90;90.00;;;;;;5064731;28;20045;-63
2023/08/18 08:36:52;;;;;;;7.43;2.70;;;23.80;90.00;;;;;;5051704;28;20084;-65
2023/08/18 08:39:18;;;;;;;6.00;2.40;;;24.20;90.00;;;;;;5017208;28;20156;-64
2023/08/18 08:41:43;;;;;;;6.43;3.10;;;24.00;89.90;;;;;;5065552;28;20048;-68
2023/08/18 08:44:09;;;;;;;4.90;2.70;;;23.90;89.80;;;;;;5048685;28;20120;-66
2023/08/18 08:46:36;;;;;;;5.07;2.70;;;24.10;91.30;;;;;;5051583;28;20132;-64
2023/08/18 08:49:06;;;;;;;8.98;3.10;;;24.10;89.80;;;;;;5031190;28;20048;-64
2023/08/18 08:51:36;;;;;;;5.38;2.50;;;24.20;88.40;;;;;;5029442;28;20554;-75
2023/08/18 08:54:02;;;;;;;5.43;2.40;;;24.00;89.80;;;;;;5044292;28;20053;-72
2023/08/18 08:56:30;;;;;;;6.65;2.50;;;24.10;89.40;;;;;;5034963;28;20492;-69
2023/08/18 08:58:56;;;;;;;7.63;2.88;;;24.10;89.70;;;;;;5048337;28;20136;-69
2023/08/18 09:01:22;;;;;;;9.18;3.00;;;24.20;89.40;;;;;;5027801;28;20124;-74
2023/08/18 09:03:49;;;;;;;13.15;3.88;;;24.30;89.60;;;;;;5032715;28;20041;-79
2023/08/18 09:06:15;;;;;;;10.15;2.92;;;24.10;89.40;;;;;;5028753;28;20041;-70
2023/08/18 09:08:41;;;;;;;11.52;2.72;;;23.90;89.20;;;;;;5052365;28;20047;-72
2023/08/18 09:11:08;;;;;;;11.10;3.10;;;24.30;89.50;;;;;;5039789;28;20124;-72
2023/08/18 09:13:35;;;;;;;16.17;3.42;;;24.10;91.10;;;;;;5054339;28;20055;-72
2023/08/18 09:16:06;;;;;;;8.73;2.78;;;24.20;89.50;;;;;;5044021;28;20047;-63
2023/08/18 09:18:32;;;;;;;8.95;3.03;;;24.20;88.10;;;;;;5052696;28;20116;-66
2023/08/18 09:21:00;;;;;;;9.38;2.80;;;24.10;89.40;;;;;;5048763;28;20061;-63
2023/08/18 09:23:27;;;;;;;10.10;3.00;;;24.00;89.10;;;;;;5053098;28;20056;-63
2023/08/18 09:25:56;;;;;;;11.20;3.10;;;23.80;89.00;;;;;;5036255;28;20048;-63
2023/08/18 09:28:21;;;;;;;9.32;3.63;;;24.20;91.00;;;;;;5055212;28;20052;-64
2023/08/18 09:30:47;;;;;;;9.05;2.80;;;24.00;89.00;;;;;;5055036;28;20504;-80
2023/08/18 09:33:13;;;;;;;6.95;3.08;;;23.90;89.00;;;;;;5049827;28;20092;-72
2023/08/18 09:35:39;;;;;;;6.90;2.83;;;24.00;89.00;;;;;;5034229;28;20041;-71
2023/08/18 09:38:05;;;;;;;6.32;3.35;;;24.40;89.30;;;;;;5072128;28;20071;-75
2023/08/18 09:40:30;;;;;;;9.27;3.00;;;24.10;89.20;;;;;;5020554;28;20057;-71
2023/08/18 09:42:56;;;;;;;7.13;2.83;;;24.30;89.30;;;;;;5016808;28;20057;-63
2023/08/18 09:45:23;;;;;;;8.73;3.88;;;24.30;89.00;;;;;;5022452;28;20025;-74
2023/08/18 09:47:55;;;;;;;8.93;3.85;;;24.30;89.00;;;;;;5034950;28;20045;-70
2023/08/18 09:50:25;;;;;;;7.13;5.00;;;24.20;87.70;;;;;;5049340;28;20048;-65
2023/08/18 09:52:54;;;;;;;8.02;4.40;;;24.60;89.40;;;;;;5030599;28;20044;-67
2023/08/18 09:55:26;;;;;;;8.25;4.90;;;24.20;89.30;;;;;;5032002;28;20403;-68
2023/08/18 09:58:12;;;;;;;9.52;4.75;;;24.20;87.70;;;;;;5033293;28;20068;-72
2023/08/18 10:00:39;;;;;;;7.93;4.55;;;24.50;89.40;;;;;;5049264;28;20056;-66
2023/08/18 10:03:05;;;;;;;8.40;5.45;;;24.30;89.60;;;;;;5031094;28;20041;-65
2023/08/18 10:05:31;;;;;;;9.82;5.40;;;24.50;89.30;;;;;;5016420;28;20487;-63
2023/08/18 10:07:57;;;;;;;7.32;5.15;;;24.60;91.30;;;;;;5030925;28;20502;-65
2023/08/18 10:10:23;;;;;;;10.02;5.40;;;24.50;89.70;;;;;;5030146;28;20053;-62
2023/08/18 10:12:49;;;;;;;9.05;5.20;;;24.40;90.00;;;;;;5048864;28;20053;-65
2023/08/18 10:15:15;;;;;;;17.38;5.97;;;24.40;89.80;;;;;;4999950;28;20041;-66
2023/08/18 10:17:41;;;;;;;22.33;5.95;;;24.70;89.90;;;;;;5029839;28;20098;-67
2023/08/18 10:20:10;;;;;;;15.02;5.30;;;24.60;89.80;;;;;;5032372;28;20045;-71
2023/08/18 10:22:36;;;;;;;11.48;3.88;;;24.60;90.00;;;;;;5029980;28;20415;-67
2023/08/18 10:25:04;;;;;;;10.35;4.50;;;24.70;91.40;;;;;;5049286;28;20074;-66
2023/08/18 10:27:30;;;;;;;10.80;4.68;;;24.70;89.70;;;;;;5021984;28;20522;-64
2023/08/18 10:29:59;;;;;;;13.07;5.88;;;24.60;89.80;;;;;;5029092;28;20237;-67
2023/08/18 10:32:25;;;;;;;17.08;6.47;;;24.90;89.90;;;;;;5039036;28;20057;-65
2023/08/18 10:34:51;;;;;;;14.52;5.90;;;24.60;89.40;;;;;;5042032;28;20037;-63
2023/08/18 10:37:20;;;;;;;10.85;5.03;;;24.60;89.50;;;;;;5041997;28;20146;-64
2023/08/18 10:39:45;;;;;;;8.05;4.63;;;24.80;90.00;;;;;;5022981;28;20418;-66
2023/08/18 10:42:15;;;;;;;12.50;4.57;;;24.70;89.70;;;;;;5039848;28;20053;-63
2023/08/18 10:44:59;;;;;;;12.23;4.38;;;24.80;89.90;;;;;;5027572;28;20107;-70
2023/08/18 10:47:29;;;;;;;7.72;3.97;;;24.80;90.20;;;;;;5029958;28;20399;-62
2023/08/18 10:49:55;;;;;;;7.10;4.00;;;24.80;90.00;;;;;;4997529;28;20369;-66
2023/08/18 10:52:22;;;;;;;6.90;4.05;;;24.80;89.40;;;;;;5032313;28;20053;-67
2023/08/18 10:54:47;;;;;;;7.47;4.13;;;24.90;91.10;;;;;;5035595;28;20029;-65
2023/08/18 10:57:13;;;;;;;7.70;3.60;;;25.10;89.40;;;;;;5041564;28;20368;-66
2023/08/18 10:59:39;;;;;;;7.22;3.60;;;24.90;89.20;;;;;;5043245;28;20372;-65
2023/08/18 11:02:05;;;;;;;10.52;3.97;;;25.00;91.10;;;;;;5025467;28;20041;-69
2023/08/18 11:04:31;;;;;;;6.50;3.65;;;25.00;89.40;;;;;;5004543;28;20040;-64
2023/08/18 11:06:56;;;;;;;8.07;3.60;;;24.90;89.20;;;;;;5006128;28;20051;-64
2023/08/18 11:09:22;;;;;;;6.57;3.85;;;25.00;89.00;;;;;;5044691;28;20044;-66
2023/08/18 11:11:48;;;;;;;7.45;4.20;;;25.10;89.00;;;;;;5033956;28;20041;-65
2023/08/18 11:14:14;;;;;;;7.15;4.10;;;25.40;89.00;;;;;;5018220;28;20514;-62
2023/08/18 11:16:40;;;;;;;6.95;4.25;;;25.10;88.90;;;;;;5015829;28;20040;-66
2023/08/18 11:19:06;;;;;;;8.82;3.95;;;25.10;88.70;;;;;;5029343;28;20094;-63
2023/08/18 11:21:34;;;;;;;7.78;4.07;;;25.20;88.80;;;;;;5028228;28;20515;-68
2023/08/18 11:24:00;;;;;;;8.32;4.05;;;25.30;89.20;;;;;;5019790;28;20052;-64
2023/08/18 11:26:25;;;;;;;7.95;4.65;;;25.10;88.50;;;;;;5017390;28;20049;-64
2023/08/18 11:28:51;;;;;;;6.65;4.22;;;25.30;88.70;;;;;;5025105;28;20057;-64
2023/08/18 11:31:17;;;;;;;9.10;4.50;;;25.20;88.80;;;;;;5037155;28;20041;-63
2023/08/18 11:33:43;;;;;;;6.85;4.15;;;25.20;88.60;;;;;;5023462;28;20050;-63
2023/08/18 11:36:12;;;;;;;6.18;3.95;;;25.60;89.00;;;;;;5042878;28;20061;-64
2023/08/18 11:38:38;;;;;;;8.05;4.25;;;25.20;89.10;;;;;;5002238;28;20052;-63
2023/08/18 11:41:04;;;;;;;7.72;4.78;;;25.20;88.80;;;;;;5011806;28;20060;-67
2023/08/18 11:43:30;;;;;;;7.60;4.55;;;25.40;89.00;;;;;;5022383;28;20041;-65
2023/08/18 11:45:56;;;;;;;8.68;4.63;;;25.30;89.00;;;;;;5012028;28;20052;-62
2023/08/18 11:48:23;;;;;;;9.18;4.40;;;25.30;89.00;;;;;;5012807;28;20037;-64
2023/08/18 11:50:55;;;;;;;8.65;4.30;;;24.80;88.90;;;;;;5026309;28;20042;-68
2023/08/18 11:53:28;;;;;;;13.52;5.18;;;25.40;89.60;;;;;;5022660;28;20056;-70
2023/08/18 11:55:55;;;;;;;19.50;5.47;;;25.20;89.00;;;;;;5033795;28;20056;-69
2023/08/18 11:58:22;;;;;;;14.88;5.80;;;25.00;89.60;;;;;;5056730;28;20041;-62
2023/08/18 12:00:48;;;;;;;17.83;5.22;;;24.90;89.40;;;;;;5030453;28;20514;-70
2023/08/18 12:03:25;;;;;;;16.40;6.00;;;25.10;89.60;;;;;;5005219;28;20546;-70
2023/08/18 12:05:52;;;;;;;17.75;6.22;;;25.10;90.20;;;;;;5033569;28;20049;-73
2023/08/18 12:08:18;;;;;;;15.00;7.45;;;25.40;91.70;;;;;;5022835;28;20838;-69
2023/08/18 12:10:47;;;;;;;16.45;6.40;;;25.10;90.00;;;;;;5021095;28;20046;-66
2023/08/18 12:13:14;;;;;;;15.35;6.90;;;25.10;90.00;;;;;;5020476;28;20064;-73
2023/08/18 12:15:39;;;;;;;16.00;7.18;;;25.40;90.20;;;;;;5029987;28;20457;-71
2023/08/18 12:18:06;;;;;;;12.23;6.60;;;25.00;90.10;;;;;;5026208;28;20124;-63
2023/08/18 12:20:32;;;;;;;15.65;6.85;;;25.20;90.10;;;;;;5032709;28;20041;-76
2023/08/18 12:22:58;;;;;;;12.77;5.80;;;25.30;90.20;;;;;;5045035;28;20052;-73
2023/08/18 12:25:25;;;;;;;11.13;6.70;;;25.10;90.20;;;;;;5051251;28;20061;-64
2023/08/18 12:27:51;;;;;;;10.07;5.75;;;25.30;90.20;;;;;;5047900;28;20040;-61
2023/08/18 12:30:18;;;;;;;11.25;6.45;;;25.00;90.10;;;;;;5014029;28;20052;-69
2023/08/18 12:32:45;;;;;;;9.68;7.78;;;25.50;90.50;;;;;;5051989;28;20040;-65
2023/08/18 12:35:11;;;;;;;10.65;6.80;;;25.40;90.50;;;;;;5036013;28;20041;-77
2023/08/18 12:37:37;;;;;;;10.80;6.90;;;25.40;90.40;;;;;;5044282;28;20577;-73
2023/08/18 12:40:07;;;;;;;10.38;6.93;;;25.30;90.50;;;;;;5036964;28;20040;-62
2023/08/18 12:42:33;;;;;;;10.07;7.22;;;25.50;90.50;;;;;;5052149;28;20103;-76